I17 weather

Piqua Airport-Hartzell Field
Piqua, Ohio, United States

Public forecast

Using degrees Fahrenheit for public forecast. Weather courtesy of forecast.io.

METAR (pilot weather report)

Closest report is Darke County Airport, 10.5 nm (19.5 km) WNW. Retrieved 2019/03/23 08:30 UTC (12 minutes ago):

KVES 230830Z AUTO 34004KT 10SM CLR M02/M02 A3021 RMK AO2

TAF (pilot weather forecast)

Closest forecast is James M Cox Dayton International Airport, 16.3 nm (30.1 km) SSE. Retrieved 2019/03/23 06:22 UTC (2 hours ago):

TAF KDAY 230520Z 2306/2406 32006KT P6SM SKC FM232300 VRB03KT P6SM SCT250